createdAt,value
2023-01-25T00:01:57.314Z,1.51
2023-01-25T00:04:31.153Z,1.87
2023-01-25T00:07:04.472Z,1.87
2023-01-25T00:09:37.806Z,1.97
2023-01-25T00:12:11.331Z,1.94
2023-01-25T00:14:44.888Z,1.66
2023-01-25T00:17:20.007Z,1.77
2023-01-25T00:19:53.839Z,1.84
2023-01-25T00:22:27.414Z,1.65
2023-01-25T00:25:00.540Z,1.58
2023-01-25T00:27:33.919Z,1.71
2023-01-25T00:30:08.124Z,1.69
2023-01-25T00:32:59.011Z,1.59
2023-01-25T00:35:33.525Z,1.70
2023-01-25T00:38:26.081Z,1.70
2023-01-25T00:40:59.858Z,1.77
2023-01-25T00:43:34.097Z,1.55
2023-01-25T00:46:07.198Z,1.72
2023-01-25T00:48:41.911Z,1.80
2023-01-25T00:51:15.714Z,1.81
2023-01-25T00:53:49.295Z,1.72
2023-01-25T00:56:22.791Z,1.77
2023-01-25T00:58:56.278Z,1.87
2023-01-25T01:01:29.732Z,1.72
2023-01-25T01:04:05.800Z,1.80
2023-01-25T01:06:40.489Z,1.82
2023-01-25T01:09:16.742Z,1.78
2023-01-25T01:11:50.730Z,1.81
2023-01-25T01:14:25.217Z,1.85
2023-01-25T01:16:58.970Z,1.98
2023-01-25T01:19:33.784Z,1.91
2023-01-25T01:22:07.502Z,1.73
2023-01-25T01:24:41.771Z,1.84
2023-01-25T01:27:15.102Z,1.77
2023-01-25T01:29:48.233Z,1.72
2023-01-25T01:32:21.713Z,1.86
2023-01-25T01:34:56.348Z,1.72
2023-01-25T01:37:29.815Z,1.82
2023-01-25T01:40:03.356Z,1.77
2023-01-25T01:42:57.432Z,1.71
2023-01-25T01:45:50.716Z,1.81
2023-01-25T01:48:33.992Z,1.83
2023-01-25T01:51:14.651Z,1.61
2023-01-25T01:53:51.236Z,1.62
2023-01-25T01:56:31.428Z,1.59
2023-01-25T01:59:07.778Z,1.45
2023-01-25T02:01:42.746Z,1.57
2023-01-25T02:04:19.985Z,1.50
2023-01-25T02:07:00.401Z,1.34
2023-01-25T02:09:37.153Z,1.34
2023-01-25T02:12:14.074Z,1.43
2023-01-25T02:14:50.565Z,1.48
2023-01-25T02:17:27.998Z,1.23
2023-01-25T02:20:08.416Z,1.37
2023-01-25T02:22:48.602Z,1.33
2023-01-25T02:25:23.476Z,1.33
2023-01-25T02:28:02.339Z,1.14
2023-01-25T02:30:35.655Z,1.30
2023-01-25T02:33:09.003Z,1.28
2023-01-25T02:35:45.632Z,1.26
2023-01-25T02:38:21.355Z,1.41
2023-01-25T02:41:00.309Z,1.37
2023-01-25T02:43:35.423Z,1.26
2023-01-25T02:46:14.402Z,1.44
2023-01-25T02:48:47.635Z,1.33
2023-01-25T02:51:21.663Z,1.33
2023-01-25T02:53:56.021Z,1.29
2023-01-25T02:56:31.386Z,1.08
2023-01-25T02:59:05.817Z,1.34
2023-01-25T03:01:40.750Z,1.35
2023-01-25T03:04:14.460Z,1.34
2023-01-25T03:06:48.077Z,1.14
2023-01-25T03:09:21.519Z,1.36
2023-01-25T03:11:57.371Z,1.27
2023-01-25T03:14:31.103Z,1.27
2023-01-25T03:17:04.619Z,1.47
2023-01-25T03:19:37.908Z,1.18
2023-01-25T03:22:11.413Z,1.04
2023-01-25T03:24:45.311Z,1.38
2023-01-25T03:27:19.879Z,1.37
2023-01-25T03:29:53.053Z,1.41
2023-01-25T03:32:26.429Z,1.49
2023-01-25T03:34:59.912Z,1.30
2023-01-25T03:37:34.197Z,1.33
2023-01-25T03:40:09.214Z,1.31
2023-01-25T03:42:44.051Z,1.20
2023-01-25T03:45:17.506Z,1.31
2023-01-25T03:47:50.852Z,1.19
2023-01-25T03:50:24.364Z,1.29
2023-01-25T03:53:14.793Z,1.33
2023-01-25T03:55:49.727Z,1.34
2023-01-25T03:58:25.147Z,1.29
2023-01-25T04:01:00.241Z,1.41
2023-01-25T04:03:34.509Z,1.30
2023-01-25T04:06:08.648Z,1.21
2023-01-25T04:08:41.617Z,1.23
2023-01-25T04:11:14.979Z,1.25
2023-01-25T04:13:49.925Z,1.25
2023-01-25T04:16:23.676Z,0.88
2023-01-25T04:18:57.113Z,1.18
2023-01-25T04:21:31.130Z,1.35
2023-01-25T04:24:04.981Z,1.29
2023-01-25T04:26:38.508Z,1.43
2023-01-25T04:29:13.389Z,1.37
2023-01-25T04:31:46.721Z,1.31
2023-01-25T04:34:20.053Z,1.41
2023-01-25T04:36:53.705Z,1.37
2023-01-25T04:39:27.236Z,1.41
2023-01-25T04:42:00.764Z,1.36
2023-01-25T04:44:35.611Z,1.24
2023-01-25T04:47:08.813Z,1.37
2023-01-25T04:49:42.195Z,1.39
2023-01-25T04:52:15.558Z,1.11
2023-01-25T04:54:49.200Z,1.36
2023-01-25T04:57:22.745Z,1.31
2023-01-25T04:59:57.393Z,1.39
2023-01-25T05:02:30.810Z,1.42
2023-01-25T05:05:04.602Z,1.32
2023-01-25T05:07:37.634Z,1.25
2023-01-25T05:10:12.450Z,1.36
2023-01-25T05:12:46.549Z,1.38
2023-01-25T05:15:21.744Z,1.48
2023-01-25T05:17:55.185Z,1.33
2023-01-25T05:20:28.477Z,1.34
2023-01-25T05:23:01.924Z,1.37
2023-01-25T05:25:52.923Z,1.43
2023-01-25T05:28:26.535Z,1.33
2023-01-25T05:31:04.265Z,1.46
2023-01-25T05:33:37.817Z,1.44
2023-01-25T05:36:11.241Z,1.48
2023-01-25T05:38:44.581Z,1.33
2023-01-25T05:41:17.801Z,1.29
2023-01-25T05:43:51.016Z,1.25
2023-01-25T05:46:26.020Z,1.36
2023-01-25T05:48:59.795Z,1.13
2023-01-25T05:51:33.571Z,1.21
2023-01-25T05:54:07.214Z,1.28
2023-01-25T05:56:40.673Z,1.42
2023-01-25T05:59:14.210Z,1.53
2023-01-25T06:01:49.095Z,1.32
2023-01-25T06:04:22.873Z,1.42
2023-01-25T06:06:56.351Z,1.26
2023-01-25T06:09:29.658Z,1.40
2023-01-25T06:12:03.895Z,1.20
2023-01-25T06:14:37.337Z,1.21
2023-01-25T06:17:12.327Z,1.24
2023-01-25T06:19:46.122Z,1.38
2023-01-25T06:22:19.959Z,1.11
2023-01-25T06:24:53.193Z,1.31
2023-01-25T06:27:26.418Z,1.36
2023-01-25T06:29:59.940Z,1.46
2023-01-25T06:32:35.097Z,0.94
2023-01-25T06:35:09.376Z,1.32
2023-01-25T06:37:43.324Z,1.32
2023-01-25T06:40:17.271Z,1.15
2023-01-25T06:42:50.477Z,1.26
2023-01-25T06:45:23.848Z,1.30
2023-01-25T06:47:58.569Z,1.38
2023-01-25T06:50:31.947Z,1.35
2023-01-25T06:53:05.510Z,1.25
2023-01-25T06:55:38.962Z,1.31
2023-01-25T06:58:13.691Z,1.21
2023-01-25T07:00:47.123Z,1.17
2023-01-25T07:03:21.803Z,1.19
2023-01-25T07:05:59.257Z,1.04
2023-01-25T07:08:33.486Z,1.28
2023-01-25T07:11:09.619Z,1.19
2023-01-25T07:13:45.600Z,1.28
2023-01-25T07:16:20.553Z,1.31
2023-01-25T07:18:55.565Z,1.35
2023-01-25T07:21:29.510Z,1.30
2023-01-25T07:24:03.888Z,1.45
2023-01-25T07:26:37.156Z,1.34
2023-01-25T07:29:14.362Z,1.31
2023-01-25T07:31:48.117Z,1.46
2023-01-25T07:34:23.243Z,1.34
2023-01-25T07:36:56.979Z,1.39
2023-01-25T07:39:30.256Z,1.30
2023-01-25T07:42:03.782Z,1.56
2023-01-25T07:44:37.341Z,1.49
2023-01-25T07:47:10.944Z,1.72
2023-01-25T07:49:45.843Z,1.75
2023-01-25T07:52:19.479Z,1.77
2023-01-25T07:54:52.909Z,1.54
2023-01-25T07:57:28.450Z,1.63
2023-01-25T08:00:01.956Z,1.66
2023-01-25T08:02:35.398Z,1.55
2023-01-25T08:05:11.772Z,1.43
2023-01-25T08:07:45.375Z,1.74
2023-01-25T08:10:18.552Z,1.74
2023-01-25T08:12:52.354Z,1.61
2023-01-25T08:15:25.778Z,1.65
2023-01-25T08:18:00.797Z,1.78
2023-01-25T08:20:35.707Z,1.80
2023-01-25T08:23:09.562Z,1.65
2023-01-25T08:25:42.925Z,1.68
2023-01-25T08:28:16.112Z,1.90
2023-01-25T08:30:57.194Z,1.81
2023-01-25T08:33:31.759Z,1.71
2023-01-25T08:36:08.928Z,1.60
2023-01-25T08:38:42.629Z,1.85
2023-01-25T08:41:17.710Z,1.52
2023-01-25T08:43:53.695Z,2.07
2023-01-25T08:46:31.369Z,1.99
2023-01-25T08:49:05.870Z,2.19
2023-01-25T08:51:40.898Z,2.25
2023-01-25T08:54:14.258Z,1.95
2023-01-25T08:56:47.448Z,2.00
2023-01-25T08:59:20.809Z,1.78
2023-01-25T09:01:54.288Z,1.79
2023-01-25T09:04:28.599Z,1.81
2023-01-25T09:07:03.475Z,2.01
2023-01-25T09:09:36.699Z,1.61
2023-01-25T09:12:11.426Z,2.12
2023-01-25T09:14:45.457Z,2.15
2023-01-25T09:17:19.393Z,2.03
2023-01-25T09:19:52.824Z,2.24
2023-01-25T09:22:27.583Z,2.17
2023-01-25T09:25:01.921Z,1.97
2023-01-25T09:27:35.061Z,2.01
2023-01-25T09:30:18.149Z,2.00
2023-01-25T09:32:52.487Z,2.00
2023-01-25T09:35:29.736Z,2.09
2023-01-25T09:38:04.687Z,1.90
2023-01-25T09:40:45.917Z,1.74
2023-01-25T09:43:32.422Z,1.78
2023-01-25T09:46:18.790Z,1.80
2023-01-25T09:49:07.616Z,1.87
2023-01-25T09:51:58.865Z,1.79
2023-01-25T09:54:46.458Z,1.88
2023-01-25T09:57:25.291Z,2.04
2023-01-25T10:00:04.090Z,2.05
2023-01-25T10:02:44.496Z,2.02
2023-01-25T10:05:22.954Z,1.66
2023-01-25T10:08:01.754Z,1.96
2023-01-25T10:10:39.443Z,1.79
2023-01-25T10:13:16.822Z,1.84
2023-01-25T10:15:54.244Z,1.62
2023-01-25T10:18:34.786Z,2.05
2023-01-25T10:21:14.551Z,2.04
2023-01-25T10:24:11.651Z,1.93
2023-01-25T10:26:52.649Z,1.75
2023-01-25T10:29:29.233Z,2.09
2023-01-25T10:32:19.640Z,1.88
2023-01-25T10:34:57.273Z,2.04
2023-01-25T10:37:35.767Z,2.10
2023-01-25T10:40:17.912Z,1.87
2023-01-25T10:42:58.018Z,2.05
2023-01-25T10:45:32.058Z,2.06
2023-01-25T10:48:10.385Z,2.07
2023-01-25T10:50:49.057Z,2.13
2023-01-25T10:53:31.146Z,2.20
2023-01-25T10:56:17.132Z,2.14
2023-01-25T10:58:54.489Z,2.18
2023-01-25T11:01:31.303Z,2.12
2023-01-25T11:04:24.248Z,2.24
2023-01-25T11:06:57.604Z,2.39
2023-01-25T11:09:36.864Z,2.25
2023-01-25T11:12:19.680Z,2.29
2023-01-25T11:14:55.087Z,2.13
2023-01-25T11:17:31.901Z,1.81
2023-01-25T11:20:15.884Z,2.36
2023-01-25T11:22:53.799Z,2.32
2023-01-25T11:25:30.925Z,2.22
2023-01-25T11:28:18.993Z,2.14
2023-01-25T11:30:54.760Z,2.13
2023-01-25T11:33:28.399Z,2.23
2023-01-25T11:36:19.953Z,2.14
2023-01-25T11:39:04.325Z,2.01
2023-01-25T11:41:52.081Z,2.25
2023-01-25T11:45:09.787Z,2.13
2023-01-25T11:47:59.782Z,2.22
2023-01-25T11:50:38.995Z,2.21
2023-01-25T11:53:34.766Z,2.11
2023-01-25T11:56:16.547Z,1.67
2023-01-25T11:59:08.439Z,2.30
2023-01-25T12:01:59.224Z,2.47
2023-01-25T12:05:09.664Z,2.31
2023-01-25T12:08:06.845Z,2.16
2023-01-25T12:10:51.643Z,2.20
2023-01-25T12:13:34.401Z,2.23
2023-01-25T12:16:30.959Z,2.39
2023-01-25T12:19:30.244Z,2.35
2023-01-25T12:22:21.224Z,1.98
2023-01-25T12:25:02.418Z,2.33
2023-01-25T12:27:51.303Z,1.70
2023-01-25T12:30:32.680Z,2.26
2023-01-25T12:33:14.821Z,2.32
2023-01-25T12:35:57.030Z,2.28
2023-01-25T12:38:39.296Z,2.40
2023-01-25T12:41:24.147Z,2.31
2023-01-25T12:44:04.599Z,2.23
2023-01-25T12:46:43.650Z,2.26
2023-01-25T12:49:25.647Z,2.12
2023-01-25T12:52:05.064Z,2.28
2023-01-25T12:54:43.990Z,2.39
2023-01-25T12:57:23.737Z,2.26
2023-01-25T13:00:07.554Z,2.33
2023-01-25T13:02:57.555Z,2.37
2023-01-25T13:05:37.662Z,2.32
2023-01-25T13:08:31.123Z,2.32
2023-01-25T13:11:17.679Z,2.31
2023-01-25T13:13:51.819Z,2.43
2023-01-25T13:16:36.364Z,2.36
2023-01-25T13:19:21.169Z,2.36
2023-01-25T13:21:56.685Z,2.36
2023-01-25T13:24:31.120Z,2.49
2023-01-25T13:27:26.101Z,2.41
2023-01-25T13:30:01.556Z,2.46
2023-01-25T13:33:07.307Z,2.51
2023-01-25T13:35:45.095Z,2.35
2023-01-25T13:38:30.966Z,2.53
2023-01-25T13:41:10.826Z,2.31
2023-01-25T13:43:55.765Z,2.41
2023-01-25T13:46:29.136Z,2.38
2023-01-25T13:49:08.220Z,2.30
2023-01-25T13:51:43.511Z,2.34
2023-01-25T13:54:18.178Z,2.27
2023-01-25T13:57:05.532Z,2.26
2023-01-25T13:59:40.824Z,2.44
2023-01-25T14:02:19.939Z,2.40
2023-01-25T14:04:54.152Z,1.98
2023-01-25T14:07:33.181Z,2.16
2023-01-25T14:10:11.660Z,2.21
2023-01-25T14:12:47.691Z,2.26
2023-01-25T14:15:25.088Z,2.32
2023-01-25T14:18:20.246Z,2.25
2023-01-25T14:20:53.738Z,2.36
2023-01-25T14:23:28.189Z,2.30
2023-01-25T14:26:02.144Z,2.36
2023-01-25T14:28:35.869Z,2.34
2023-01-25T14:31:22.918Z,2.27
2023-01-25T14:33:58.988Z,2.42
2023-01-25T14:36:35.331Z,2.39
2023-01-25T14:39:21.657Z,2.36
2023-01-25T14:42:01.488Z,2.38
2023-01-25T14:44:36.265Z,2.27
2023-01-25T14:47:31.363Z,2.25
2023-01-25T14:50:33.324Z,2.33
2023-01-25T14:53:13.694Z,2.33
2023-01-25T14:55:48.186Z,2.34
2023-01-25T14:58:25.029Z,2.35
2023-01-25T15:01:01.815Z,2.30
2023-01-25T15:03:44.751Z,2.11
2023-01-25T15:06:18.381Z,2.10
2023-01-25T15:08:51.945Z,2.08
2023-01-25T15:11:49.891Z,2.14
2023-01-25T15:14:23.757Z,2.03
2023-01-25T15:16:57.549Z,1.95
2023-01-25T15:19:34.669Z,2.07
2023-01-25T15:22:09.797Z,2.04
2023-01-25T15:24:50.256Z,2.11
2023-01-25T15:27:28.051Z,2.04
2023-01-25T15:30:02.608Z,2.08
2023-01-25T15:32:36.002Z,2.03
2023-01-25T15:35:15.405Z,2.00
2023-01-25T15:37:49.708Z,2.01
2023-01-25T15:40:23.031Z,2.09
2023-01-25T15:42:56.403Z,2.03
2023-01-25T15:45:30.046Z,2.03
2023-01-25T15:48:03.320Z,2.11
2023-01-25T15:50:38.144Z,2.03
2023-01-25T15:53:16.077Z,2.08
2023-01-25T15:55:53.526Z,2.09
2023-01-25T15:58:30.414Z,2.01
2023-01-25T16:01:04.544Z,2.16
2023-01-25T16:03:41.504Z,2.17
2023-01-25T16:06:38.725Z,2.13
2023-01-25T16:09:18.677Z,2.10
2023-01-25T16:11:54.761Z,1.99
2023-01-25T16:14:31.464Z,1.97
2023-01-25T16:17:06.112Z,2.10
2023-01-25T16:19:39.792Z,2.02
2023-01-25T16:22:14.920Z,2.04
2023-01-25T16:24:48.341Z,2.06
2023-01-25T16:27:25.749Z,2.08
2023-01-25T16:29:59.142Z,1.96
2023-01-25T16:32:32.777Z,2.05
2023-01-25T16:35:06.792Z,2.15
2023-01-25T16:37:41.625Z,2.12
2023-01-25T16:40:23.644Z,2.15
2023-01-25T16:42:57.380Z,2.09
2023-01-25T16:45:32.030Z,2.18
2023-01-25T16:48:05.707Z,2.18
2023-01-25T16:50:38.873Z,2.16
2023-01-25T16:53:13.783Z,2.18
2023-01-25T16:55:48.263Z,2.20
2023-01-25T16:58:21.560Z,2.13
2023-01-25T17:00:55.117Z,2.02
2023-01-25T17:03:29.233Z,2.25
2023-01-25T17:06:02.973Z,2.20
2023-01-25T17:08:37.608Z,2.17
2023-01-25T17:11:10.794Z,2.01
2023-01-25T17:13:44.316Z,1.99
2023-01-25T17:16:18.403Z,2.01
2023-01-25T17:18:55.251Z,1.97
2023-01-25T17:21:29.612Z,1.94
2023-01-25T17:24:04.438Z,1.93
2023-01-25T17:26:37.705Z,1.90
2023-01-25T17:29:12.142Z,1.90
2023-01-25T17:31:45.691Z,1.96
2023-01-25T17:34:20.236Z,1.85
2023-01-25T17:36:54.060Z,1.97
2023-01-25T17:39:28.380Z,2.01
2023-01-25T17:42:01.878Z,2.10
2023-01-25T17:44:35.134Z,2.02
2023-01-25T17:47:09.149Z,1.93
2023-01-25T17:49:43.038Z,2.00
2023-01-25T17:52:16.365Z,2.04
2023-01-25T17:54:51.185Z,2.06
2023-01-25T17:57:26.396Z,2.00
2023-01-25T17:59:59.668Z,2.02
2023-01-25T18:02:33.045Z,2.05
2023-01-25T18:05:08.016Z,1.97
2023-01-25T18:07:41.495Z,1.89
2023-01-25T18:10:17.030Z,1.95
2023-01-25T18:13:04.042Z,2.01
2023-01-25T18:15:38.060Z,2.04
2023-01-25T18:18:11.358Z,1.95
2023-01-25T18:20:44.592Z,1.99
2023-01-25T18:23:17.608Z,2.01
2023-01-25T18:25:52.361Z,1.91
2023-01-25T18:28:26.833Z,1.77
2023-01-25T18:31:02.850Z,1.85
2023-01-25T18:33:36.583Z,1.95
2023-01-25T18:36:11.751Z,1.91
2023-01-25T18:38:45.432Z,1.82
2023-01-25T18:41:20.260Z,1.90
2023-01-25T18:43:53.964Z,2.02
2023-01-25T18:46:27.923Z,1.95
2023-01-25T18:49:01.667Z,2.04
2023-01-25T18:51:48.637Z,2.00
2023-01-25T18:54:29.134Z,2.03
2023-01-25T18:57:04.429Z,1.99
2023-01-25T18:59:38.361Z,1.88
2023-01-25T19:02:12.476Z,1.98
2023-01-25T19:04:46.786Z,1.93
2023-01-25T19:07:20.509Z,1.97
2023-01-25T19:09:54.166Z,1.89
2023-01-25T19:12:29.631Z,1.78
2023-01-25T19:15:03.287Z,1.98
2023-01-25T19:17:37.005Z,2.08
2023-01-25T19:20:12.294Z,1.99
2023-01-25T19:22:48.533Z,1.95
2023-01-25T19:25:23.729Z,1.94
2023-01-25T19:27:59.372Z,1.88
2023-01-25T19:30:33.284Z,1.94
2023-01-25T19:33:07.876Z,1.88
2023-01-25T19:35:41.654Z,2.03
2023-01-25T19:38:15.645Z,1.94
2023-01-25T19:40:49.295Z,1.92
2023-01-25T19:43:24.052Z,2.08
2023-01-25T19:46:09.191Z,2.14
2023-01-25T19:48:45.227Z,2.09
2023-01-25T19:51:21.196Z,2.00
2023-01-25T19:53:59.503Z,1.94
2023-01-25T19:56:35.982Z,1.92
2023-01-25T19:59:13.918Z,1.78
2023-01-25T20:01:48.327Z,2.00
2023-01-25T20:04:25.331Z,1.90
2023-01-25T20:06:59.183Z,1.90
2023-01-25T20:09:32.988Z,1.94
2023-01-25T20:12:08.488Z,1.89
2023-01-25T20:14:44.383Z,1.83
2023-01-25T20:17:20.359Z,1.86
2023-01-25T20:19:53.971Z,1.72
2023-01-25T20:22:27.196Z,1.80
2023-01-25T20:25:01.226Z,1.74
2023-01-25T20:27:35.010Z,1.80
2023-01-25T20:30:11.894Z,1.65
2023-01-25T20:32:45.158Z,1.68
2023-01-25T20:35:18.371Z,1.77
2023-01-25T20:37:52.136Z,1.64
2023-01-25T20:40:25.120Z,1.82
2023-01-25T20:42:58.457Z,1.78
2023-01-25T20:45:34.915Z,1.88
2023-01-25T20:48:08.263Z,1.74
2023-01-25T20:50:41.450Z,1.80
2023-01-25T20:53:14.974Z,1.75
2023-01-25T20:55:55.603Z,1.72
2023-01-25T20:58:29.721Z,1.58
2023-01-25T21:01:04.736Z,1.67
2023-01-25T21:03:37.917Z,1.61
2023-01-25T21:06:12.248Z,1.43
2023-01-25T21:08:45.698Z,1.56
2023-01-25T21:11:18.991Z,1.43
2023-01-25T21:13:53.914Z,1.68
2023-01-25T21:16:29.192Z,1.73
2023-01-25T21:19:06.487Z,1.82
2023-01-25T21:21:40.950Z,1.83
2023-01-25T21:24:14.114Z,1.68
2023-01-25T21:26:47.316Z,1.73
2023-01-25T21:29:21.222Z,1.77
2023-01-25T21:31:55.809Z,1.77
2023-01-25T21:34:30.952Z,1.83
2023-01-25T21:37:04.446Z,1.83
2023-01-25T21:39:37.679Z,1.90
2023-01-25T21:42:11.465Z,1.87
2023-01-25T21:45:02.403Z,1.87
2023-01-25T21:47:37.067Z,1.68
2023-01-25T21:50:29.543Z,1.64
2023-01-25T21:53:02.913Z,1.72
2023-01-25T21:55:36.447Z,1.85
2023-01-25T21:58:09.738Z,1.89
2023-01-25T22:00:43.133Z,1.84
2023-01-25T22:03:18.130Z,1.71
2023-01-25T22:05:54.829Z,1.51
2023-01-25T22:08:29.933Z,1.56
2023-01-25T22:11:03.824Z,1.75
2023-01-25T22:13:38.269Z,1.70
2023-01-25T22:16:13.343Z,1.59
2023-01-25T22:18:48.974Z,1.56
2023-01-25T22:21:23.398Z,1.59
2023-01-25T22:23:56.652Z,1.65
2023-01-25T22:26:34.169Z,1.18
2023-01-25T22:29:07.447Z,1.46
2023-01-25T22:31:41.416Z,1.55
2023-01-25T22:34:17.113Z,1.58
2023-01-25T22:36:50.238Z,1.55
2023-01-25T22:39:23.471Z,1.00
2023-01-25T22:41:56.946Z,1.45
2023-01-25T22:44:30.389Z,1.50
2023-01-25T22:47:04.000Z,1.60
2023-01-25T22:49:38.875Z,1.56
2023-01-25T22:52:11.976Z,1.43
2023-01-25T22:54:45.938Z,1.42
2023-01-25T22:57:19.602Z,1.46
2023-01-25T22:59:52.828Z,1.44
2023-01-25T23:02:26.287Z,1.45
2023-01-25T23:05:01.207Z,1.32
2023-01-25T23:07:34.429Z,1.27
2023-01-25T23:10:08.642Z,1.30
2023-01-25T23:12:50.003Z,1.13
2023-01-25T23:15:24.383Z,1.09
2023-01-25T23:18:15.254Z,1.14
2023-01-25T23:20:50.112Z,1.20
2023-01-25T23:23:23.848Z,1.21
2023-01-25T23:25:58.164Z,1.23
2023-01-25T23:28:32.041Z,1.19
2023-01-25T23:31:17.725Z,1.31
2023-01-25T23:33:52.802Z,1.19
2023-01-25T23:36:29.497Z,1.30
2023-01-25T23:39:03.113Z,1.30
2023-01-25T23:41:36.232Z,1.30
2023-01-25T23:44:10.233Z,1.28
2023-01-25T23:46:43.595Z,1.28
2023-01-25T23:49:17.446Z,1.35
2023-01-25T23:51:52.141Z,1.30
2023-01-25T23:54:26.974Z,1.31
2023-01-25T23:57:00.312Z,1.30
2023-01-25T23:59:34.991Z,1.27
